Time;durP1;ratioP1;P1;durP2;ratioP2;P2;SDS_P1;SDS_P2;PMS_P1;PMS_P2;Temp;Humidity;BMP_temperature;BMP_pressure;BME280_temperature;BME280_humidity;BME280_pressure;Samples;Min_cycle;Max_cycle;Signal;HPM_P1;HPM_P2
2023/01/05 00:01:43;;;;;;;27.23;6.72;;;;;;;9.50;100.00;101508.69;6145674;23;20002;-87
2023/01/05 00:04:08;;;;;;;26.38;7.05;;;;;;;9.46;100.00;101503.47;6144835;23;20011;-87
2023/01/05 00:06:36;;;;;;;28.92;7.13;;;;;;;9.45;100.00;101512.38;6145327;23;20120;-87
2023/01/05 00:09:03;;;;;;;33.70;7.40;;;;;;;9.41;100.00;101513.41;6120269;23;20060;-87
2023/01/05 00:22:45;;;;;;;27.65;6.53;;;;;;;9.39;100.00;101517.88;6171251;23;20055;-87
2023/01/05 00:25:13;;;;;;;28.30;7.68;;;;;;;9.39;100.00;101511.72;6155858;23;20001;-88
2023/01/05 00:27:41;;;;;;;25.95;6.88;;;;;;;9.28;100.00;101511.22;6146884;23;20013;-87
2023/01/05 00:30:07;;;;;;;31.25;6.93;;;;;;;9.22;100.00;101522.94;6148277;23;20110;-88
2023/01/05 00:32:32;;;;;;;29.42;7.38;;;;;;;9.10;100.00;101518.91;6146833;23;20005;-87
2023/01/05 00:34:58;;;;;;;33.35;7.32;;;;;;;9.07;100.00;101523.44;6148871;23;20009;-87
2023/01/05 00:37:26;;;;;;;28.73;7.18;;;;;;;8.97;100.00;101514.91;6148538;23;20009;-87
2023/01/05 00:39:51;;;;;;;27.80;6.85;;;;;;;8.98;100.00;101517.50;6148917;23;20037;-87
2023/01/05 00:42:17;;;;;;;28.90;7.18;;;;;;;8.95;100.00;101512.34;6147538;23;20018;-87
2023/01/05 00:44:43;;;;;;;25.10;6.80;;;;;;;8.86;100.00;101502.03;6147911;23;20619;-87
2023/01/05 00:47:08;;;;;;;25.88;6.88;;;;;;;8.81;100.00;101505.72;6149036;23;20001;-87
2023/01/05 00:49:33;;;;;;;24.60;6.72;;;;;;;8.79;100.00;101500.47;6148035;23;20021;-87
2023/01/05 00:51:59;;;;;;;24.90;6.78;;;;;;;8.74;100.00;101505.09;6146360;23;20019;-88
2023/01/05 00:54:24;;;;;;;28.60;6.65;;;;;;;8.71;100.00;101521.97;6146157;23;20013;-87
2023/01/05 00:56:50;;;;;;;24.77;7.20;;;;;;;8.63;100.00;101502.75;6146813;23;20009;-88
2023/01/05 00:59:16;;;;;;;28.08;7.70;;;;;;;8.70;100.00;101516.72;6146296;23;20006;-87
2023/01/05 01:01:49;;;;;;;26.27;7.53;;;;;;;8.69;100.00;101512.31;6145148;23;20032;-87
2023/01/05 01:04:15;;;;;;;24.48;6.28;;;;;;;8.66;100.00;101513.28;6146083;23;20040;-87
2023/01/05 01:06:40;;;;;;;30.50;7.05;;;;;;;8.61;100.00;101525.84;6148528;23;20084;-87
2023/01/05 01:09:06;;;;;;;33.78;7.93;;;;;;;8.54;100.00;101518.97;6146648;23;20376;-87
2023/01/05 01:11:31;;;;;;;31.48;7.63;;;;;;;8.55;100.00;101525.16;6145614;23;20009;-87
2023/01/05 01:13:57;;;;;;;30.15;6.82;;;;;;;8.52;100.00;101520.81;6146401;23;20105;-87
2023/01/05 01:16:22;;;;;;;35.78;7.95;;;;;;;8.44;100.00;101523.72;6143441;23;20012;-87
2023/01/05 01:18:47;;;;;;;29.25;7.30;;;;;;;8.31;100.00;101522.31;6145843;23;20001;-87
2023/01/05 01:21:13;;;;;;;32.05;7.55;;;;;;;8.34;100.00;101532.81;6146371;23;20017;-87
2023/01/05 01:23:38;;;;;;;30.42;6.90;;;;;;;8.31;100.00;101522.31;6118509;23;20016;-87
2023/01/05 01:26:04;;;;;;;31.92;7.45;;;;;;;8.27;100.00;101530.41;6148124;23;20013;-86
2023/01/05 01:28:30;;;;;;;36.78;7.90;;;;;;;8.17;100.00;101533.34;6146733;23;20002;-87
2023/01/05 01:30:55;;;;;;;33.97;8.10;;;;;;;8.15;100.00;101536.94;6147924;23;20122;-87
2023/01/05 01:33:21;;;;;;;29.20;7.70;;;;;;;8.08;100.00;101532.75;6146487;23;20582;-87
2023/01/05 01:35:46;;;;;;;37.10;7.43;;;;;;;8.09;100.00;101543.31;6148346;23;20005;-87
2023/01/05 01:38:11;;;;;;;30.50;8.02;;;;;;;8.01;100.00;101524.09;6146911;23;20020;-87
2023/01/05 01:40:38;;;;;;;27.77;7.10;;;;;;;7.98;100.00;101527.72;6119640;23;20009;-87
2023/01/05 01:43:11;;;;;;;34.45;7.55;;;;;;;7.97;100.00;101547.16;6146636;23;20002;-87
2023/01/05 01:45:37;;;;;;;30.08;7.65;;;;;;;7.96;100.00;101549.88;6119512;23;20009;-87
2023/01/05 01:48:02;;;;;;;35.22;7.63;;;;;;;7.92;100.00;101550.88;6146700;23;20005;-87
2023/01/05 01:50:35;;;;;;;34.08;7.35;;;;;;;7.90;100.00;101563.28;6118944;23;20013;-87
2023/01/05 01:53:05;;;;;;;38.13;7.63;;;;;;;7.95;100.00;101556.97;6146314;23;20005;-87
2023/01/05 01:55:31;;;;;;;39.08;8.23;;;;;;;8.03;100.00;101554.09;6145709;23;20012;-87
2023/01/05 01:57:59;;;;;;;36.72;7.78;;;;;;;7.95;100.00;101541.06;6146548;23;20020;-87
2023/01/05 02:00:25;;;;;;;32.08;7.00;;;;;;;8.07;100.00;101571.66;6119295;23;20009;-87
2023/01/05 02:02:53;;;;;;;36.67;8.88;;;;;;;8.04;100.00;101569.09;6145392;23;20060;-86
2023/01/05 02:05:22;;;;;;;33.05;7.55;;;;;;;8.10;100.00;101576.84;6145423;23;19998;-88
2023/01/05 02:07:47;;;;;;;31.60;7.68;;;;;;;8.11;100.00;101565.34;6144642;23;20067;-87
2023/01/05 02:10:16;;;;;;;30.55;7.30;;;;;;;8.16;100.00;101584.66;6145534;23;20005;-87
2023/01/05 02:13:02;;;;;;;31.80;7.18;;;;;;;8.17;100.00;101586.38;6144398;23;20555;-87
2023/01/05 02:15:44;;;;;;;35.85;8.57;;;;;;;8.22;100.00;101587.09;6099099;23;20033;-87
2023/01/05 02:18:57;;;;;;;34.47;7.70;;;;;;;8.25;100.00;101586.16;6145608;23;20006;-86
2023/01/05 02:21:48;;;;;;;32.50;8.02;;;;;;;8.26;100.00;101587.88;6052362;23;20011;-87
2023/01/05 02:24:31;;;;;;;33.65;8.35;;;;;;;8.26;100.00;101585.22;6024458;23;20031;-87
2023/01/05 02:27:15;;;;;;;27.95;7.43;;;;;;;8.27;100.00;101602.88;6026394;23;20022;-86
2023/01/05 02:29:48;;;;;;;35.70;8.20;;;;;;;8.24;100.00;101579.97;6027568;23;20011;-87
2023/01/05 02:32:31;;;;;;;39.22;8.75;;;;;;;8.35;100.00;101590.25;6027219;23;20453;-88
2023/01/05 02:35:28;;;;;;;27.55;7.95;;;;;;;8.37;100.00;101588.47;6028607;23;20019;-86
2023/01/05 02:38:04;;;;;;;31.95;8.13;;;;;;;8.39;100.00;101594.59;6008585;23;20019;-86
2023/01/05 02:40:46;;;;;;;35.25;7.40;;;;;;;8.47;100.00;101591.72;6032404;23;20488;-87
2023/01/05 02:43:20;;;;;;;32.38;7.45;;;;;;;8.51;100.00;101596.00;6053845;23;20010;-86
2023/01/05 02:45:46;;;;;;;35.33;8.05;;;;;;;8.48;100.00;101577.53;6056461;23;19995;-87
2023/01/05 02:48:12;;;;;;;30.02;7.35;;;;;;;8.53;100.00;101591.53;6055942;23;20003;-87
2023/01/05 02:50:44;;;;;;;30.15;7.45;;;;;;;8.56;100.00;101587.91;6048273;23;20899;-87
2023/01/05 02:53:21;;;;;;;33.28;7.53;;;;;;;8.58;100.00;101594.06;6036361;23;20012;-87
2023/01/05 02:55:56;;;;;;;34.83;8.10;;;;;;;8.60;100.00;101586.91;6030073;23;20010;-87
2023/01/05 02:58:51;;;;;;;31.30;7.93;;;;;;;8.59;100.00;101586.03;6103092;23;20021;-87
2023/01/05 03:01:54;;;;;;;28.85;7.07;;;;;;;8.60;100.00;101573.63;6130464;23;20014;-86
2023/01/05 03:04:25;;;;;;;36.78;8.15;;;;;;;8.54;100.00;101595.94;6126161;23;20092;-87
2023/01/05 03:06:58;;;;;;;34.30;8.13;;;;;;;8.54;100.00;101597.72;6148110;23;20097;-87
2023/01/05 03:09:28;;;;;;;34.30;7.13;;;;;;;8.55;100.00;101600.31;6122028;23;20010;-86
2023/01/05 03:15:07;;;;;;;32.92;7.05;;;;;;;8.58;100.00;101594.91;6148724;23;20395;-87
2023/01/05 03:17:39;;;;;;;28.10;7.18;;;;;;;8.63;100.00;101598.28;6146213;23;20009;-87
2023/01/05 03:20:07;;;;;;;30.63;7.38;;;;;;;8.64;100.00;101600.03;6148188;23;20066;-86
2023/01/05 03:37:14;;;;;;;30.27;7.00;;;;;;;8.60;100.00;101602.81;6150338;23;20342;-86
2023/01/05 03:39:43;;;;;;;28.90;7.13;;;;;;;8.62;100.00;101598.34;6148398;23;20335;-87
2023/01/05 03:42:10;;;;;;;37.97;8.15;;;;;;;8.66;100.00;101592.03;6146130;23;20048;-86
2023/01/05 03:44:38;;;;;;;30.23;6.88;;;;;;;8.67;100.00;101589.31;6147561;23;20005;-87
2023/01/05 03:47:03;;;;;;;33.72;8.30;;;;;;;8.70;100.00;101597.19;6147712;23;20006;-86
2023/01/05 03:49:29;;;;;;;23.15;6.38;;;;;;;8.63;100.00;101585.03;6147108;23;20016;-86
2023/01/05 03:51:55;;;;;;;28.35;6.55;;;;;;;8.73;100.00;101588.25;6147499;23;20017;-87
2023/01/05 03:54:20;;;;;;;34.58;7.35;;;;;;;8.71;100.00;101584.78;6146244;23;20005;-87
2023/01/05 03:56:45;;;;;;;29.50;6.85;;;;;;;8.77;100.00;101599.66;6149089;23;20316;-88
2023/01/05 03:59:11;;;;;;;22.75;6.10;;;;;;;8.78;100.00;101596.06;6147543;23;20029;-86
2023/01/05 04:01:36;;;;;;;25.73;5.68;;;;;;;8.78;100.00;101596.97;6145554;23;20008;-87
2023/01/05 04:04:01;;;;;;;28.27;5.82;;;;;;;8.84;100.00;101611.81;6146645;23;20033;-86
2023/01/05 04:06:27;;;;;;;27.88;6.95;;;;;;;8.86;100.00;101605.56;6145887;23;20056;-87
2023/01/05 04:08:52;;;;;;;26.92;6.63;;;;;;;8.78;100.00;101599.63;6146168;23;20056;-86
2023/01/05 04:11:20;;;;;;;27.80;6.72;;;;;;;8.91;100.00;101610.72;6145649;23;20013;-87
2023/01/05 04:13:45;;;;;;;29.00;6.85;;;;;;;8.87;100.00;101603.78;6145002;23;20478;-86
2023/01/05 04:16:12;;;;;;;27.35;6.07;;;;;;;8.93;100.00;101609.72;6146095;23;20009;-87
2023/01/05 04:18:37;;;;;;;28.58;6.82;;;;;;;8.93;100.00;101612.38;6145627;23;20001;-86
2023/01/05 04:21:04;;;;;;;31.70;7.13;;;;;;;8.93;100.00;101601.78;6119276;23;20013;-86
2023/01/05 04:23:29;;;;;;;28.83;6.45;;;;;;;8.92;100.00;101609.78;6144216;23;20002;-86
2023/01/05 04:25:54;;;;;;;26.55;6.68;;;;;;;8.89;100.00;101604.56;6145024;23;20129;-86
2023/01/05 04:28:20;;;;;;;25.83;6.47;;;;;;;8.91;100.00;101618.69;6118910;23;20012;-87
2023/01/05 04:30:49;;;;;;;30.10;7.70;;;;;;;8.88;100.00;101616.97;6143474;23;20005;-86
2023/01/05 04:33:14;;;;;;;27.25;6.30;;;;;;;8.89;100.00;101620.50;6117798;23;20045;-87
2023/01/05 04:35:40;;;;;;;29.42;6.15;;;;;;;8.89;100.00;101624.03;6145365;23;20036;-86
2023/01/05 04:38:05;;;;;;;27.02;6.60;;;;;;;8.89;100.00;101624.03;6119870;23;20064;-87
2023/01/05 04:40:30;;;;;;;30.67;7.30;;;;;;;8.90;100.00;101620.47;6144007;23;20095;-86
2023/01/05 04:42:56;;;;;;;29.25;7.65;;;;;;;8.92;100.00;101615.97;6119073;23;20095;-86
2023/01/05 04:45:21;;;;;;;27.88;7.18;;;;;;;8.89;100.00;101618.72;6145391;23;20001;-86
2023/01/05 04:47:46;;;;;;;29.25;7.38;;;;;;;8.90;100.00;101630.19;6146062;23;20009;-86
2023/01/05 04:50:11;;;;;;;29.60;7.05;;;;;;;8.78;100.00;101609.34;6145288;23;20009;-86
2023/01/05 04:52:37;;;;;;;30.65;7.10;;;;;;;8.83;100.00;101620.72;6145508;23;20016;-86
2023/01/05 04:55:03;;;;;;;27.73;7.45;;;;;;;8.83;100.00;101615.41;6144996;23;20416;-86
2023/01/05 04:57:28;;;;;;;29.23;6.15;;;;;;;8.85;100.00;101619.72;6144288;23;20012;-86
2023/01/05 04:59:53;;;;;;;29.83;7.15;;;;;;;8.89;100.00;101629.34;6142427;23;20017;-87
2023/01/05 05:02:19;;;;;;;23.85;6.82;;;;;;;8.89;100.00;101625.81;6149139;23;20016;-86
2023/01/05 05:04:44;;;;;;;26.13;6.07;;;;;;;8.95;100.00;101621.19;6160039;23;20024;-86
2023/01/05 05:07:09;;;;;;;31.80;6.97;;;;;;;8.96;100.00;101633.53;6136251;23;20005;-85
2023/01/05 05:09:34;;;;;;;24.95;6.57;;;;;;;8.96;100.00;101638.84;6160199;23;20012;-84
2023/01/05 05:12:00;;;;;;;31.70;7.20;;;;;;;8.97;100.00;101631.75;6156039;23;20032;-84
2023/01/05 05:14:25;;;;;;;29.17;6.60;;;;;;;8.98;100.00;101622.84;6160755;23;20006;-86
2023/01/05 05:16:50;;;;;;;30.92;7.85;;;;;;;8.99;100.00;101632.59;6163051;23;20005;-86
2023/01/05 05:19:15;;;;;;;27.77;6.60;;;;;;;8.99;100.00;101635.25;6162777;23;20033;-85
2023/01/05 05:21:41;;;;;;;30.63;7.05;;;;;;;8.94;100.00;101623.88;6146934;23;20073;-85
2023/01/05 05:24:06;;;;;;;35.92;7.15;;;;;;;8.97;100.00;101643.25;6147671;23;20005;-85
2023/01/05 05:26:31;;;;;;;28.95;7.25;;;;;;;9.01;100.00;101651.13;6148220;23;20001;-85
2023/01/05 05:28:58;;;;;;;25.98;6.93;;;;;;;9.02;100.00;101652.84;6147512;23;20016;-86
2023/01/05 05:31:23;;;;;;;25.33;6.30;;;;;;;8.95;100.00;101641.56;6147164;23;20048;-86
2023/01/05 05:33:49;;;;;;;29.75;7.95;;;;;;;9.02;100.00;101644.88;6146952;23;20013;-85
2023/01/05 05:36:14;;;;;;;28.42;7.35;;;;;;;9.01;100.00;101657.28;6146577;23;20013;-86
2023/01/05 05:38:39;;;;;;;27.63;7.00;;;;;;;8.98;100.00;101644.97;6146526;23;20010;-85
2023/01/05 05:41:05;;;;;;;29.30;7.22;;;;;;;9.02;100.00;101652.84;6147228;23;20010;-85
2023/01/05 05:43:30;;;;;;;32.38;7.10;;;;;;;9.00;100.00;101644.06;6146364;23;20062;-85
2023/01/05 05:45:55;;;;;;;28.85;6.70;;;;;;;9.04;100.00;101656.34;6143858;23;20001;-85
2023/01/05 05:48:21;;;;;;;29.77;7.00;;;;;;;9.05;100.00;101658.94;6145563;23;20057;-85
2023/01/05 05:50:46;;;;;;;29.77;7.45;;;;;;;9.01;100.00;101669.69;6145590;23;20336;-86
2023/01/05 05:53:11;;;;;;;34.22;7.53;;;;;;;9.04;100.00;101669.63;6146303;23;20001;-86
2023/01/05 05:55:37;;;;;;;30.88;7.10;;;;;;;9.04;100.00;101667.81;6119162;23;20020;-85
2023/01/05 05:58:02;;;;;;;33.20;7.35;;;;;;;9.03;100.00;101678.47;6145654;23;20006;-85
2023/01/05 06:00:27;;;;;;;33.83;7.80;;;;;;;9.04;100.00;101678.44;6118137;23;20032;-85
2023/01/05 06:02:52;;;;;;;28.08;6.45;;;;;;;9.04;100.00;101678.44;6143597;23;20009;-84
2023/01/05 06:05:18;;;;;;;35.35;7.45;;;;;;;9.05;100.00;101697.91;6146771;23;20025;-85
2023/01/05 06:07:43;;;;;;;30.02;6.70;;;;;;;9.10;100.00;101704.78;6118521;23;20010;-86
2023/01/05 06:10:09;;;;;;;28.73;7.07;;;;;;;9.10;100.00;101699.47;6146514;23;20001;-84
2023/01/05 06:12:35;;;;;;;27.25;7.35;;;;;;;9.12;100.00;101710.09;6143689;23;20037;-85
2023/01/05 06:15:00;;;;;;;34.80;8.30;;;;;;;9.14;100.00;101694.94;6147404;23;20514;-86
2023/01/05 06:17:25;;;;;;;37.55;7.32;;;;;;;9.12;100.00;101686.19;6146534;23;20089;-85
2023/01/05 06:19:50;;;;;;;29.35;7.68;;;;;;;9.09;100.00;101697.75;6145072;23;20029;-85
2023/01/05 06:22:16;;;;;;;30.02;7.20;;;;;;;9.03;100.00;101686.44;6143271;23;20009;-85
2023/01/05 06:24:41;;;;;;;32.45;7.90;;;;;;;9.07;100.00;101706.66;6143896;23;20096;-85
2023/01/05 06:27:06;;;;;;;31.58;7.00;;;;;;;8.99;100.00;101701.63;6147146;23;20032;-85
2023/01/05 06:29:31;;;;;;;32.70;7.47;;;;;;;9.07;100.00;101712.88;6120059;23;20001;-84
2023/01/05 06:31:57;;;;;;;29.55;6.93;;;;;;;9.05;100.00;101722.66;6146920;23;20032;-85
2023/01/05 06:34:22;;;;;;;32.55;7.70;;;;;;;9.06;100.00;101721.75;6146161;23;20024;-83
2023/01/05 06:36:47;;;;;;;33.00;7.55;;;;;;;9.03;100.00;101713.91;6145787;23;20010;-83
2023/01/05 06:39:13;;;;;;;35.72;8.25;;;;;;;9.04;100.00;101712.09;6145170;23;20001;-85
2023/01/05 06:41:38;;;;;;;31.33;7.30;;;;;;;9.04;100.00;101726.25;6148777;23;20020;-84
2023/01/05 06:44:04;;;;;;;34.65;7.97;;;;;;;9.07;100.00;101720.84;6149702;23;20001;-84
2023/01/05 06:46:29;;;;;;;41.55;8.35;;;;;;;9.08;100.00;101724.38;6151440;23;20072;-83
2023/01/05 06:48:55;;;;;;;33.28;8.48;;;;;;;9.10;100.00;101728.69;6152132;23;20009;-83
2023/01/05 06:51:21;;;;;;;31.88;8.07;;;;;;;9.04;100.00;101736.88;6153842;23;20174;-84
2023/01/05 06:53:46;;;;;;;36.35;8.38;;;;;;;9.01;100.00;101734.28;6150289;23;20334;-83
2023/01/05 06:56:12;;;;;;;34.38;7.90;;;;;;;9.06;100.00;101747.44;6146495;23;20092;-83
2023/01/05 06:58:37;;;;;;;32.63;7.72;;;;;;;9.07;100.00;101750.06;6146320;23;20529;-84
2023/01/05 07:01:03;;;;;;;38.65;9.38;;;;;;;9.07;100.00;101751.81;6146627;23;20017;-84
2023/01/05 07:03:28;;;;;;;38.90;9.18;;;;;;;9.09;100.00;101760.63;6145647;23;20032;-84
2023/01/05 07:05:53;;;;;;;39.67;8.25;;;;;;;9.09;100.00;101765.94;6146766;23;20009;-83
2023/01/05 07:08:18;;;;;;;38.15;8.23;;;;;;;9.07;100.00;101757.13;6146708;23;20088;-84
2023/01/05 07:10:44;;;;;;;30.85;7.90;;;;;;;9.06;100.00;101755.41;6145836;23;20005;-83
2023/01/05 07:13:09;;;;;;;44.75;9.52;;;;;;;9.09;100.00;101756.19;6146149;23;20001;-84
2023/01/05 07:15:34;;;;;;;34.28;8.65;;;;;;;9.05;100.00;101753.66;6146599;23;20005;-83
2023/01/05 07:18:00;;;;;;;37.75;8.43;;;;;;;9.05;100.00;101748.34;6121605;23;20009;-84
2023/01/05 07:20:25;;;;;;;31.67;8.40;;;;;;;9.06;100.00;101766.03;6145514;23;20008;-84
2023/01/05 07:22:50;;;;;;;30.45;7.75;;;;;;;9.07;100.00;101760.69;6147217;23;20068;-84
2023/01/05 07:25:15;;;;;;;41.53;9.38;;;;;;;9.12;100.00;101768.50;6149009;23;20326;-83
2023/01/05 07:27:41;;;;;;;38.30;8.95;;;;;;;9.09;100.00;101765.94;6156904;23;20013;-84
2023/01/05 07:30:07;;;;;;;32.22;7.88;;;;;;;9.09;100.00;101771.25;6137912;23;20274;-84
2023/01/05 07:32:32;;;;;;;39.00;8.68;;;;;;;9.10;100.00;101767.66;6157311;23;20017;-83
2023/01/05 07:34:57;;;;;;;35.03;8.25;;;;;;;9.05;100.00;101781.09;6159726;23;20006;-84
2023/01/05 07:37:23;;;;;;;36.65;8.35;;;;;;;9.07;100.00;101773.97;6150858;23;20077;-84
2023/01/05 07:39:48;;;;;;;40.63;8.25;;;;;;;9.04;100.00;101773.19;6150408;23;20407;-84
2023/01/05 07:42:14;;;;;;;35.50;8.18;;;;;;;9.04;100.00;101783.81;6122873;23;20776;-84
2023/01/05 07:44:39;;;;;;;35.50;8.88;;;;;;;9.04;100.00;101789.13;6149605;23;20055;-84
2023/01/05 07:47:04;;;;;;;41.60;8.93;;;;;;;9.04;100.00;101789.13;6149763;23;20005;-84
2023/01/05 07:49:30;;;;;;;32.30;8.10;;;;;;;9.01;100.00;101778.56;6148113;23;20014;-83
2023/01/05 07:51:55;;;;;;;37.92;7.95;;;;;;;9.02;100.00;101780.31;6148055;23;20715;-84
2023/01/05 07:54:20;;;;;;;36.40;9.23;;;;;;;9.06;100.00;101793.44;6147494;23;20050;-84
2023/01/05 07:56:46;;;;;;;33.65;7.75;;;;;;;9.07;100.00;101799.63;6121868;23;20009;-84
2023/01/05 07:59:11;;;;;;;38.30;8.10;;;;;;;9.01;100.00;101791.84;6146882;23;20087;-85
2023/01/05 08:01:36;;;;;;;38.10;9.27;;;;;;;9.01;100.00;101795.38;6146330;23;20080;-84
2023/01/05 08:04:02;;;;;;;35.15;8.88;;;;;;;9.01;100.00;101808.66;6119737;23;20221;-83
2023/01/05 08:06:27;;;;;;;45.72;8.65;;;;;;;8.98;100.00;101806.06;6146069;23;20060;-84
2023/01/05 08:08:54;;;;;;;34.08;8.10;;;;;;;8.93;100.00;101802.69;6145700;23;20050;-84
2023/01/05 08:11:20;;;;;;;33.10;8.02;;;;;;;8.97;100.00;101799.03;6145906;23;20010;-84
2023/01/05 08:14:04;;;;;;;35.50;8.63;;;;;;;8.93;100.00;101802.69;6146452;23;20009;-84
2023/01/05 08:16:31;;;;;;;34.70;8.60;;;;;;;8.97;100.00;101810.53;6146637;23;20002;-84
2023/01/05 08:18:57;;;;;;;30.60;8.07;;;;;;;8.99;100.00;101813.16;6145143;23;20443;-84
2023/01/05 08:21:23;;;;;;;37.78;8.50;;;;;;;8.97;100.00;101815.84;6145699;23;20006;-84
2023/01/05 08:23:52;;;;;;;31.30;7.25;;;;;;;8.97;100.00;101812.31;6145695;23;20013;-84
2023/01/05 08:26:19;;;;;;;35.63;8.50;;;;;;;9.03;100.00;101825.44;6145920;23;20009;-84
2023/01/05 08:28:45;;;;;;;33.95;7.80;;;;;;;9.03;100.00;101828.09;6119036;23;20013;-84
2023/01/05 08:31:15;;;;;;;36.53;8.82;;;;;;;9.05;100.00;101822.72;6120014;23;20180;-84
2023/01/05 08:33:40;;;;;;;39.10;8.35;;;;;;;9.06;100.00;101829.75;6144416;23;20001;-84
2023/01/05 08:36:07;;;;;;;31.75;8.32;;;;;;;9.05;100.00;101828.88;6119879;23;20040;-84
2023/01/05 08:38:33;;;;;;;37.75;8.32;;;;;;;9.08;100.00;101827.94;6144213;23;20009;-83
2023/01/05 08:40:59;;;;;;;36.83;9.27;;;;;;;9.08;100.00;101835.91;6145516;23;20116;-84
2023/01/05 08:43:24;;;;;;;30.67;8.32;;;;;;;9.09;100.00;101835.00;6145040;23;20013;-84
2023/01/05 08:45:50;;;;;;;35.38;8.98;;;;;;;9.09;100.00;101837.66;6145391;23;20005;-84
2023/01/05 08:48:15;;;;;;;53.63;9.27;;;;;;;9.13;100.00;101849.94;6118923;23;20055;-83
2023/01/05 08:50:41;;;;;;;38.75;8.73;;;;;;;9.15;100.00;101850.72;6144758;23;20419;-84
2023/01/05 08:53:06;;;;;;;40.45;8.70;;;;;;;9.16;100.00;101850.72;6148192;23;20005;-84
2023/01/05 08:55:31;;;;;;;36.85;8.02;;;;;;;9.19;100.00;101853.25;6149072;23;20044;-84
2023/01/05 08:57:57;;;;;;;35.92;8.32;;;;;;;9.22;100.00;101857.63;6148192;23;20056;-84
2023/01/05 09:00:22;;;;;;;37.40;8.48;;;;;;;9.25;100.00;101859.31;6148491;23;20025;-84
2023/01/05 09:02:48;;;;;;;39.88;8.75;;;;;;;9.25;100.00;101865.50;6150168;23;20005;-84
2023/01/05 09:05:14;;;;;;;39.03;8.55;;;;;;;9.27;100.00;101876.09;6148833;23;20024;-84
2023/01/05 09:07:43;;;;;;;33.28;8.38;;;;;;;9.29;100.00;101874.25;6143998;23;20037;-84
2023/01/05 09:10:09;;;;;;;36.63;7.60;;;;;;;9.30;100.00;101870.69;6144583;23;20313;-84
2023/01/05 09:12:35;;;;;;;40.28;9.13;;;;;;;9.31;100.00;101869.75;6118382;23;20005;-84
2023/01/05 09:15:01;;;;;;;31.23;8.60;;;;;;;9.30;100.00;101866.25;6146251;23;20055;-83
2023/01/05 09:17:26;;;;;;;32.33;7.95;;;;;;;9.30;100.00;101873.34;6145154;23;20006;-84
2023/01/05 09:19:51;;;;;;;36.92;8.52;;;;;;;9.36;100.00;101874.00;6145057;23;20775;-84
2023/01/05 09:22:17;;;;;;;36.20;8.38;;;;;;;9.37;100.00;101880.22;6145516;23;20416;-84
2023/01/05 09:24:42;;;;;;;35.60;7.78;;;;;;;9.35;100.00;101880.25;6144750;23;20002;-84
2023/01/05 09:27:07;;;;;;;36.65;8.85;;;;;;;9.41;100.00;101876.56;6145535;23;20005;-84
2023/01/05 09:29:33;;;;;;;35.42;8.23;;;;;;;9.38;100.00;101880.16;6144060;23;20009;-85
2023/01/05 09:31:58;;;;;;;36.03;8.48;;;;;;;9.51;100.00;101882.47;6145518;23;20383;-84
2023/01/05 09:34:23;;;;;;;32.30;8.13;;;;;;;9.52;100.00;101884.19;6144344;23;20753;-84
2023/01/05 09:36:49;;;;;;;37.53;8.48;;;;;;;9.57;100.00;101892.91;6145226;23;20002;-84
2023/01/05 09:39:14;;;;;;;36.67;8.10;;;;;;;9.61;100.00;101889.22;6146387;23;20816;-84
2023/01/05 09:41:46;;;;;;;34.10;8.05;;;;;;;9.68;100.00;101912.94;6146370;23;20100;-84
2023/01/05 09:44:26;;;;;;;38.33;8.70;;;;;;;9.73;100.00;101918.09;6146899;23;20002;-84
2023/01/05 09:46:55;;;;;;;33.58;8.10;;;;;;;9.75;100.00;101912.75;6148407;23;20005;-84
2023/01/05 09:49:23;;;;;;;39.67;9.35;;;;;;;9.72;100.00;101917.25;6146584;23;20014;-85
2023/01/05 09:51:58;;;;;;;36.25;9.00;;;;;;;9.69;100.00;101917.31;6151923;23;20011;-84
2023/01/05 09:54:28;;;;;;;40.85;8.48;;;;;;;9.79;100.00;101927.72;6127253;23;20005;-84
2023/01/05 09:56:56;;;;;;;36.13;8.20;;;;;;;9.85;100.00;101917.75;6152298;23;20037;-84
2023/01/05 09:59:35;;;;;;;35.53;8.55;;;;;;;9.90;100.00;101910.47;6152498;23;20121;-84
2023/01/05 10:02:10;;;;;;;39.08;9.82;;;;;;;9.94;100.00;101929.88;6152325;23;20009;-84
2023/01/05 10:04:35;;;;;;;36.17;8.63;;;;;;;9.92;100.00;101934.38;6150182;23;20009;-84
2023/01/05 10:07:05;;;;;;;36.60;7.90;;;;;;;9.84;100.00;101925.78;6150411;23;20366;-84
2023/01/05 10:09:38;;;;;;;32.92;8.02;;;;;;;9.80;100.00;101929.44;6149524;23;20009;-84
2023/01/05 10:15:12;;;;;;;45.17;9.30;;;;;;;9.72;100.00;101934.97;6030810;23;20043;-83
2023/01/05 10:17:38;;;;;;;32.40;7.90;;;;;;;9.73;100.00;101934.06;6029849;23;20012;-84
2023/01/05 10:20:25;;;;;;;35.60;8.70;;;;;;;9.76;100.00;101941.94;6030645;23;20026;-83
2023/01/05 10:23:05;;;;;;;38.13;8.48;;;;;;;9.71;100.00;101928.81;6028328;23;20358;-84
2023/01/05 10:25:38;;;;;;;31.88;8.15;;;;;;;9.77;100.00;101934.84;6028282;23;20011;-83
2023/01/05 10:28:06;;;;;;;37.22;8.95;;;;;;;9.76;100.00;101935.78;6027851;23;20015;-83
2023/01/05 10:30:57;;;;;;;42.80;9.43;;;;;;;9.76;100.00;101938.44;6027751;23;20018;-84
2023/01/05 10:33:39;;;;;;;37.10;8.98;;;;;;;9.73;100.00;101940.25;6026387;23;20011;-83
2023/01/05 10:36:16;;;;;;;35.60;8.73;;;;;;;9.78;100.00;101961.41;6028252;23;20022;-83
2023/01/05 10:38:57;;;;;;;36.08;9.07;;;;;;;9.73;100.00;101948.22;6027517;23;20011;-83
2023/01/05 10:41:36;;;;;;;35.80;8.95;;;;;;;9.80;100.00;101948.91;6027953;23;20454;-83
2023/01/05 10:44:36;;;;;;;33.90;8.13;;;;;;;9.80;100.00;101953.38;6029342;23;20007;-83
2023/01/05 10:47:02;;;;;;;46.03;10.20;;;;;;;9.78;100.00;101957.84;6042485;23;20003;-83
2023/01/05 10:49:30;;;;;;;47.47;9.63;;;;;;;9.73;100.00;101948.22;6102455;23;20010;-84
2023/01/05 10:51:58;;;;;;;38.08;9.10;;;;;;;9.79;100.00;101936.56;6140403;23;20270;-83
2023/01/05 10:54:52;;;;;;;36.10;9.02;;;;;;;9.90;100.00;101945.06;6110548;23;20053;-83
2023/01/05 10:57:38;;;;;;;33.03;8.23;;;;;;;9.85;100.00;101947.00;6097057;23;20452;-83
2023/01/05 11:00:19;;;;;;;31.23;7.63;;;;;;;9.80;100.00;101946.25;6117374;23;20074;-84
2023/01/05 11:02:56;;;;;;;37.80;8.45;;;;;;;9.77;100.00;101949.00;6118627;23;20009;-83
2023/01/05 11:05:31;;;;;;;36.13;8.95;;;;;;;9.86;100.00;101950.50;6120890;23;20002;-83
2023/01/05 11:08:00;;;;;;;31.77;8.50;;;;;;;9.89;100.00;101959.28;6118906;23;20024;-83
2023/01/05 11:10:37;;;;;;;37.17;8.02;;;;;;;10.10;100.00;101952.44;6091237;23;20336;-83
2023/01/05 11:13:14;;;;;;;36.97;8.65;;;;;;;10.17;100.00;101959.31;6118077;23;20049;-83
2023/01/05 11:15:44;;;;;;;40.00;8.25;;;;;;;10.11;100.00;101950.63;6117691;23;20006;-84
2023/01/05 11:18:28;;;;;;;35.95;9.05;;;;;;;10.11;100.00;101956.81;6116710;23;20005;-83
2023/01/05 11:21:10;;;;;;;36.75;8.82;;;;;;;10.18;100.00;101949.53;6117647;23;20013;-83
2023/01/05 11:23:47;;;;;;;38.42;9.43;;;;;;;10.16;100.00;101954.03;6103537;23;20033;-84
2023/01/05 11:26:22;;;;;;;31.02;7.95;;;;;;;10.16;100.00;101960.22;6110250;23;20017;-84
2023/01/05 11:29:06;;;;;;;38.78;8.85;;;;;;;10.25;100.00;101963.56;6145757;23;20025;-83
2023/01/05 11:31:36;;;;;;;29.65;8.80;;;;;;;10.16;99.59;101960.22;6117499;23;20033;-83
2023/01/05 11:34:20;;;;;;;36.55;8.10;;;;;;;10.13;100.00;101943.50;6092171;23;20061;-84
2023/01/05 11:36:54;;;;;;;34.08;8.98;;;;;;;10.09;100.00;101937.38;6117556;23;20013;-83
2023/01/05 11:39:33;;;;;;;30.17;8.32;;;;;;;10.14;100.00;101948.75;6117254;23;20084;-83
2023/01/05 11:42:17;;;;;;;37.55;9.68;;;;;;;10.16;100.00;101943.41;6106659;23;20117;-83
2023/01/05 11:44:50;;;;;;;34.25;9.32;;;;;;;10.11;100.00;101935.53;6118835;23;20009;-83
2023/01/05 11:47:39;;;;;;;28.67;8.90;;;;;;;10.19;100.00;101938.81;6116702;23;20012;-83
2023/01/05 11:50:23;;;;;;;33.25;9.93;;;;;;;10.27;100.00;101925.31;6118353;23;20088;-83
2023/01/05 11:52:57;;;;;;;35.88;10.07;;;;;;;10.35;100.00;101928.59;6118453;23;20037;-83
2023/01/05 11:55:37;;;;;;;43.95;10.55;;;;;;;10.48;99.52;101929.06;6117387;23;20006;-83
2023/01/05 11:58:25;;;;;;;31.98;10.32;;;;;;;10.46;99.24;101936.25;6116564;23;20077;-83